Tiempo atmosférico en la estación meteorológica de Arenys De Mar, Barcelona (50 m.)



Fecha
DESCASC
Temp. máxima en grados centígrados (hora)
DESCASC
Temp. mínima en grados centígrados (hora)
DESCASC
Temp. media en grados centígrados
DESCASC
Racha de viento máxima en m/sg (hora)
DESCASC
Velocidad máxima media en intervalos de 10 minutos(hora)
DESCASC
Precipitaciones diarias en mm
DESCASC
Precipitaciones de 00:00 a 06:00 en mm
DESCASC
Precipitaciones de 06:00 a 12:00 en mm
DESCASC
Precipitaciones de 12:00 a 18:00 en mm
DESCASC
Precipitaciones de 18:00 a 24:00 en mm
DESCASC
10-07-2020 31.5 (17:30) 20.2 (04:20) 25.9 6.39 (14:50) 2.5 (14:50) 0 0 0 0 0
09-07-2020 30.2 (13:40) 19.7 (06:00) 25 6.11 (17:30) 2.78 (17:30) 0 0 0 0 0
08-07-2020 29.2 (15:20) 19.2 (06:50) 24.2 5.28 (15:10) 2.22 (16:00) 0 0 0 0 0
07-07-2020 28.7 (11:00) 21.1 (02:30) 24.9 6.39 (14:20) 2.78 (14:00) 0 0 0 0 0
06-07-2020 29.8 (15:20) 19.6 (00:00) 24.7 4.72 (11:30) 2.22 (16:40) 0 0 0 0 0
05-07-2020 29.8 (18:00) 18.2 (00:00) 24 6.94 (14:30) 3.33 (15:20) 0 0 0 0 0
04-07-2020 26.8 (14:10) 19.2 (00:00) 23 6.67 (17:40) 3.33 (15:50) 1.5 1.2 0.3 0 0
03-07-2020 26.9 (15:00) 18.6 (07:30) 22.8 6.39 (02:10) 3.61 (02:10) 16.5 5.9 10.6 0 0
02-07-2020 29.5 (14:50) 19.7 (00:00) 24.6 16.67 (21:40) 5.83 (23:20) 0 0 0 0 0
01-07-2020 30.2 (13:10) 19.5 (00:00) 24.9 3.89 (15:00) 1.94 (06:50) 0 0 0 0 0
30-06-2020 27.4 (16:30) 21.1 (00:00) 24.3 6.11 (16:30) 2.78 (16:30) 0 0 0 0 0
29-06-2020 29.1 (14:30) 19.9 (00:00) 24.5 5 (17:40) 2.22 (15:00) 0 0 0 0 0
28-06-2020 29.7 (15:40) 19.6 (00:00) 24.7 6.39 (17:00) 3.33 (16:40) 0 0 0 0 0
27-06-2020 28.2 (12:10) 19.9 (00:00) 24.1 5 (12:10) 2.22 (14:50) 0 0 0 0 0
26-06-2020 30.3 (15:20) 19.4 (00:00) 24.8 4.17 (15:10) 1.94 (13:00) 0 0 0 0 0
25-06-2020 29.7 (17:50) 19 (00:00) 24.4 4.72 (11:50) 1.94 (13:40) 0 0 0 0 0
24-06-2020 28.2 (15:10) 17.4 (00:00) 22.8 6.11 (15:00) 3.06 (11:40) 0 0 0 0 0
23-06-2020 27.8 (14:00) 18.9 (00:00) 23.3 8.61 (15:50) 3.61 (17:40) 0 0 0 0 0
22-06-2020 27.6 (11:40) 18.4 (00:00) 23 5 (15:30) 2.78 (17:40) 0 0 0 0 0
21-06-2020 26.9 (11:00) 17.4 (00:00) 22.1 6.11 (16:40) 3.06 (17:00) 0 0 0 0 0
20-06-2020 26.1 (14:50) 16.6 (00:00) 21.4 8.06 (16:20) 3.61 (18:00) 0 0 0 0 0
19-06-2020 25.1 (11:00) 14.9 (00:00) 20 6.39 (19:30) 2.78 (15:40) 0 0 0 0 0
18-06-2020 23.1 (16:00) 14.6 (00:00) 18.9 5.56 (10:30) 2.5 (09:50) 11.5 0 11.5 0 0
17-06-2020 24.3 (13:30) 15.4 (00:00) 19.8 7.22 (15:40) 2.22 (15:40) 0 0 0 0 0
16-06-2020 22.4 (19:10) 16.5 (00:00) 19.4 6.39 (15:00) 2.78 (01:30) 2.2 0.1 0.4 1.7 0
15-06-2020 25.5 (12:30) 16 (00:00) 20.8 8.89 (15:00) 4.44 (15:50) 0 0 0 0 0
14-06-2020 25.1 (11:40) 15 (00:00) 20.1 7.78 (16:30) 4.17 (16:30) 0 0 0 0 0
13-06-2020 27.3 (17:40) 13.9 (00:00) 20.6 10 (13:40) 4.72 (15:00) 19.5 0 19.5 0 0
12-06-2020 27.6 (12:20) 17.2 (00:00) 22.4 9.72 (14:20) 5 (16:50) 0 0 0 0 0

Gráficas

Temp. máximas Temp. mínimas Temp. medias Precipitaciones Rachas de viento máximas Velocidades máximas media en intervalos de 10 minutos

Datos horarios

Fecha y hora oficial Temperatura (ºC) Velocidad del viento (km/h) Dirección del viento Racha (km/h) Dirección de racha Precipitación (mm) Presión (hPa) Tendencia (hPa) Humedad (%)
2020-07-11 23:00:00 23.7 3 Sudoeste 10 Noroeste 0 -- -- 56
2020-07-11 22:00:00 23.6 5 Oeste 9 Oeste 0 -- -- 60
2020-07-11 21:00:00 24.4 3 Oeste 10 Sudoeste 0 -- -- 60
2020-07-11 20:00:00 25.2 5 Sur 15 Sur 0 -- -- 59
2020-07-11 19:00:00 26.4 5 Sur 18 Sur 0 -- -- 54
2020-07-11 18:00:00 26.9 9 Sur 22 Sur 0 -- -- 55
2020-07-11 17:00:00 26.3 9 Sur 19 Sur 0 -- -- 54
2020-07-11 16:00:00 28.4 4 Sudeste 17 Sur 0 -- -- 47
2020-07-11 15:00:00 28.3 6 Sudeste 17 Sur 0 -- -- 51
2020-07-11 14:00:00 27.7 6 Sudeste 15 Sur 0 -- -- 50
2020-07-11 13:00:00 28.5 8 Sur 17 Sur 0 -- -- 44
2020-07-11 12:00:00 28.1 6 Sur 15 Sudeste 0 -- -- 45
2020-07-11 11:00:00 28.4 4 Sudeste 12 Nordeste 0 -- -- 47
2020-07-11 10:00:00 27.5 3 Este 10 Norte 0 -- -- 49
2020-07-11 09:00:00 26.6 0 Calma 11 Nordeste 0 -- -- 51
2020-07-11 08:00:00 22.4 7 Norte 14 Norte 0 -- -- 66
2020-07-11 07:00:00 20.4 5 Norte 10 Norte 0 -- -- 72
2020-07-11 06:00:00 20.3 5 Noroeste 11 Norte 0 -- -- 68
2020-07-11 05:00:00 20.5 5 Norte 10 Noroeste 0 -- -- 67
2020-07-11 04:00:00 20.6 3 Noroeste 12 Norte 0 -- -- 65
2020-07-11 03:00:00 20 3 Noroeste 9 Norte 0 -- -- 60
2020-07-11 02:00:00 20.1 4 Norte 7 Norte 0 -- -- 54
2020-07-11 01:00:00 21 3 Norte 8 Noroeste 0 -- -- 51
2020-07-11 00:00:00 21.3 3 Norte 12 Norte 0 -- -- 49
2020-07-10 23:00:00 21.5 4 Norte 11 Norte 0 -- -- 47
2020-07-10 22:00:00 22.6 3 Noroeste 9 Norte 0 -- -- 50
2020-07-10 21:00:00 25.1 0 Calma 8 Sudoeste 0 -- -- 42
2020-07-10 20:00:00 26.6 0 Calma 15 Sur 0 -- -- 34
2020-07-10 19:00:00 30.7 3 Sudeste 14 Oeste 0 -- -- 24
2020-07-10 18:00:00 29.9 4 Nordeste 14 Nordeste 0 -- -- 25
2020-07-10 17:00:00 30.1 2 Este 15 Norte 0 -- -- 29
2020-07-10 16:00:00 28.4 2 Sudeste 12 Sudeste 0 -- -- 45
2020-07-10 15:00:00 24.7 5 Sudeste 23 Sur 0 -- -- 72
2020-07-10 14:00:00 26.2 4 Este 17 Sudeste 0 -- -- 66
2020-07-10 13:00:00 27.4 3 Sudeste 16 Sudeste 0 -- -- 61
2020-07-10 12:00:00 25.9 3 Este 17 Sur 0 -- -- 64
2020-07-10 11:00:00 26.2 0 Calma 10 Sudoeste 0 -- -- 61
2020-07-10 10:00:00 25.4 0 Calma 13 Norte 0 -- -- 63
2020-07-10 09:00:00 24.7 8 Norte 16 Norte 0 -- -- 66
2020-07-10 08:00:00 23.2 4 Norte 8 Norte 0 -- -- 65
2020-07-10 07:00:00 22.4 3 Sudoeste 7 Norte 0 -- -- 63
2020-07-10 06:00:00 21 5 Norte 11 Norte 0 -- -- 60
2020-07-10 05:00:00 20.8 3 Noroeste 10 Norte 0 -- -- 69
2020-07-10 04:00:00 21 0 Calma 9 Noroeste 0 -- -- 77
2020-07-10 03:00:00 21 0 Calma 8 Norte 0 -- -- 83
2020-07-10 02:00:00 21.4 4 Norte 9 Norte 0 -- -- 79
2020-07-10 01:00:00 21.8 4 Norte 9 Nordeste 0 -- -- 74
2020-07-10 00:00:00 22.1 0 Calma 7 Norte 0 -- -- 66
2020-07-09 23:00:00 22.1 2 Nordeste 6 Noroeste 0 -- -- 55
2020-07-09 22:00:00 22.9 3 Norte 7 Noroeste 0 -- -- 56
2020-07-09 21:00:00 24.9 0 Calma 6 Sur 0 -- -- 55
2020-07-09 20:00:00 26.2 0 Calma 11 Sur 0 -- -- 45
2020-07-09 19:00:00 28.3 4 Sur 15 Sur 0 -- -- 39
2020-07-09 18:00:00 29.3 4 Sur 22 Sudoeste 0 -- -- 39
2020-07-09 17:00:00 27.6 8 Sur 17 Sur 0 -- -- 51
2020-07-09 16:00:00 29.4 3 Este 15 Sudeste 0 -- -- 53
2020-07-09 15:00:00 29.4 4 Sur 17 Sur 0 -- -- 52
2020-07-09 14:00:00 28.9 7 Sur 18 Sur 0 -- -- 51
2020-07-09 13:00:00 28.4 5 Sudeste 14 Nordeste 0 -- -- 49
2020-07-09 12:00:00 28.7 3 Este 10 Sudeste 0 -- -- 44
2020-07-09 11:00:00 29 2 Este 9 Sudeste 0 -- -- 45
2020-07-09 10:00:00 26.6 3 Sudeste 9 Sudoeste 0 -- -- 48
2020-07-09 09:00:00 25.9 0 Calma 8 Sur 0 -- -- 54
2020-07-09 08:00:00 22.8 5 Norte 10 Norte 0 -- -- 60
2020-07-09 07:00:00 20.6 4 Norte 12 Norte 0 -- -- 66
2020-07-09 06:00:00 19.8 4 Norte 8 Norte 0 -- -- 72
2020-07-09 05:00:00 20.9 3 Norte 11 Norte 0 -- -- 71
2020-07-09 04:00:00 20.7 3 Norte 8 Norte 0 -- -- 76
2020-07-09 03:00:00 20.2 0 Calma 10 Nordeste 0 -- -- 77
2020-07-09 02:00:00 20.8 3 Norte 8 Norte 0 -- -- 77
2020-07-09 01:00:00 21.1 3 Norte 6 Noroeste 0 -- -- 74
2020-07-09 00:00:00 21.6 0 Calma 8 Sudoeste 0 -- -- 69
2020-07-08 23:00:00 22.4 3 Oeste 7 Oeste 0 -- -- 65
2020-07-08 22:00:00 22.8 3 Oeste 8 Oeste 0 -- -- 61
2020-07-08 21:00:00 23.7 3 Sur 9 Sur 0 -- -- 54
2020-07-08 20:00:00 24.8 4 Sur 12 Sur 0 -- -- 45
2020-07-08 19:00:00 26.4 4 Sur 14 Nordeste 0 -- -- 40
2020-07-08 18:00:00 26.9 4 Sudeste 17 Sudeste 0 -- -- 38
2020-07-08 17:00:00 26.7 5 Sudeste 17 Sur 0 -- -- 36
2020-07-08 16:00:00 27.1 8 Sur 19 Sudoeste 0 -- -- 33
2020-07-08 15:00:00 27.4 7 Sur 17 Sudoeste 0 -- -- 29
2020-07-08 14:00:00 28.1 5 Sudeste 15 Sur 0 -- -- 30
2020-07-08 13:00:00 28.2 6 Sur 14 Sudoeste 0 -- -- 30
2020-07-08 12:00:00 28 4 Este 15 Nordeste 0 -- -- 33
2020-07-08 11:00:00 26.7 4 Este 17 Sudeste 0 -- -- 45
2020-07-08 10:00:00 27.1 3 Sudeste 11 Sudeste 0 -- -- 51
2020-07-08 09:00:00 26.5 2 Este 8 Nordeste 0 -- -- 52
2020-07-08 08:00:00 21.5 3 Norte 6 Norte 0 -- -- 69
2020-07-08 07:00:00 19.4 3 Norte 6 Norte 0 -- -- 75
2020-07-08 06:00:00 20.3 4 Norte 8 Sudoeste 0 -- -- 71
2020-07-08 05:00:00 20.1 4 Norte 9 Sudoeste 0 -- -- 77
2020-07-08 04:00:00 20.2 3 Noroeste 7 Norte 0 -- -- 77
2020-07-08 03:00:00 20.3 2 Noroeste 7 Sudoeste 0 -- -- 75
2020-07-08 02:00:00 21 4 Noroeste 9 Norte 0 -- -- 72
2020-07-08 01:00:00 21 4 Noroeste 9 Noroeste 0 -- -- 71
2020-07-08 00:00:00 21.2 0 Calma 6 Norte 0 -- -- 79
2020-07-07 23:00:00 21.9 2 Noroeste 6 Noroeste 0 -- -- 74
2020-07-07 22:00:00 22.2 3 Sur 6 Sur 0 -- -- 70
2020-07-07 21:00:00 23.2 0 Calma 8 Sudeste 0 -- -- 64
2020-07-07 20:00:00 23.8 3 Sur 10 Sur 0 -- -- 63
2020-07-07 19:00:00 24.2 3 Sudeste 12 Sur 0 -- -- 59
2020-07-07 18:00:00 25.5 5 Sudeste 16 Sur 0 -- -- 54
2020-07-07 17:00:00 27.1 6 Sur 20 Sur 0 -- -- 49
2020-07-07 16:00:00 27.3 6 Sur 19 Sudeste 0 -- -- 48
2020-07-07 15:00:00 26.9 9 Sur 23 Sudoeste 0 -- -- 47
2020-07-07 14:00:00 27 10 Sur 22 Sudoeste 0 -- -- 47
2020-07-07 13:00:00 27.7 8 Sur 19 Sur 0 -- -- 46
2020-07-07 12:00:00 27.2 5 Sudeste 18 Sudoeste 0 -- -- 45
2020-07-07 11:00:00 26.7 4 Sudeste 17 Sudeste 0 -- -- 45
2020-07-07 10:00:00 26.2 4 Sudeste 11 Nordeste 0 -- -- 55
2020-07-07 09:00:00 24.7 0 Calma 5 Noroeste 0 -- -- 65
2020-07-07 08:00:00 22.3 2 Norte 10 Nordeste 0 -- -- 82
2020-07-07 07:00:00 21.8 0 Calma 11 Norte 0 -- -- 86
2020-07-07 06:00:00 21.6 5 Norte 18 Norte 0 -- -- 83
2020-07-07 05:00:00 21.6 6 Norte 11 Norte 0 -- -- 83
2020-07-07 04:00:00 21.9 3 Norte 9 Norte 0 -- -- 83
2020-07-07 03:00:00 21.5 3 Norte 7 Nordeste 0 -- -- 87
2020-07-07 02:00:00 21.4 4 Norte 8 Norte 0 -- -- 86
2020-07-07 01:00:00 21.7 3 Norte 6 Norte 0 -- -- 86
2020-07-07 00:00:00 22.1 0 Calma 8 Sudoeste 0 -- -- 84
2020-07-06 23:00:00 23 0 Calma 4 Norte 0 -- -- 82
2020-07-06 22:00:00 23.1 0 Calma 7 Sur 0 -- -- 81
2020-07-06 21:00:00 23.9 4 Sur 11 Sur 0 -- -- 76
2020-07-06 20:00:00 24.9 5 Sur 12 Sur 0 -- -- 70
2020-07-06 19:00:00 26.7 3 Sudeste 13 Sur 0 -- -- 62
2020-07-06 18:00:00 27.2 4 Sudeste 15 Sudeste 0 -- -- 60
2020-07-06 17:00:00 27.8 4 Sudeste 16 Nordeste 0 -- -- 54
2020-07-06 16:00:00 29 6 Sur 14 Sudoeste 0 -- -- 56
2020-07-06 15:00:00 28.4 6 Sur 15 Sudeste 0 -- -- 54
2020-07-06 14:00:00 28 4 Sudeste 16 Nordeste 0 -- -- 60
2020-07-06 13:00:00 29.2 3 Este 17 Nordeste 0 -- -- 54
2020-07-06 12:00:00 28.9 4 Este 17 Sudeste 0 -- -- 50
2020-07-06 11:00:00 28.2 3 Este 14 Nordeste 0 -- -- 47
2020-07-06 10:00:00 27.4 2 Sudeste 9 Sudeste 0 -- -- 49
2020-07-06 09:00:00 27.1 2 Sudeste 6 Sudeste 0 -- -- 54
2020-07-06 08:00:00 21.5 4 Norte 8 Norte 0 -- -- 72
2020-07-06 07:00:00 19.9 3 Noroeste 8 Norte 0 -- -- 73
2020-07-06 06:00:00 20.1 4 Norte 9 Norte 0 -- -- 73
2020-07-06 05:00:00 20.2 0 Calma 13 Norte 0 -- -- 69
2020-07-06 04:00:00 21.6 5 Norte 10 Norte 0 -- -- 60
2020-07-06 03:00:00 21.3 2 Noroeste 10 Norte 0 -- -- 62
2020-07-06 02:00:00 23 4 Norte 11 Norte 0 -- -- 58
2020-07-06 01:00:00 21.5 2 Oeste 7 Norte 0 -- -- 71
2020-07-06 00:00:00 21.5 0 Calma 7 Norte 0 -- -- 72
2020-07-05 23:00:00 22.5 4 Norte 6 Norte 0 -- -- 73
2020-07-05 22:00:00 23.3 0 Calma 9 Sudoeste 0 -- -- 74
2020-07-05 21:00:00 24.9 4 Sudoeste 11 Sudoeste 0 -- -- 64
2020-07-05 20:00:00 26.1 6 Sudoeste 14 Sur 0 -- -- 55
2020-07-05 19:00:00 27.9 5 Sur 24 Sur 0 -- -- 50
2020-07-05 18:00:00 29.8 6 Sudoeste 21 Sur 0 -- -- 44
2020-07-05 17:00:00 28.7 7 Sur 24 Sur 0 -- -- 45
2020-07-05 16:00:00 29 8 Sudoeste 23 Sudoeste 0 -- -- 43
2020-07-05 15:00:00 28.4 8 Sudoeste 25 Sur 0 -- -- 51
2020-07-05 14:00:00 28.9 9 Sur 22 Sur 0 -- -- 50
2020-07-05 13:00:00 28.2 9 Sur 19 Sudoeste 0 -- -- 47
2020-07-05 12:00:00 28.3 4 Sur 13 Sur 0 -- -- 47
2020-07-05 11:00:00 26.7 4 Este 11 Sudeste 0 -- -- 50
2020-07-05 10:00:00 26.2 3 Sudeste 11 Sudeste 0 -- -- 51
2020-07-05 09:00:00 24.5 0 Calma 6 Sur 0 -- -- 55
2020-07-05 08:00:00 20.2 3 Norte 9 Norte 0 -- -- 76
2020-07-05 07:00:00 18.7 3 Norte 11 Norte 0 -- -- 75
2020-07-05 06:00:00 18.4 5 Norte 14 Norte 0 -- -- 77
2020-07-05 05:00:00 18.5 4 Norte 7 Norte 0 -- -- 82
2020-07-05 04:00:00 19.1 0 Calma 9 Norte 0 -- -- 80
2020-07-05 03:00:00 19.9 2 Norte 9 Norte 0 -- -- 83
2020-07-05 02:00:00 19.8 5 Norte 9 Norte 0 -- -- 84
2020-07-05 01:00:00 19.8 4 Norte 9 Norte 0 -- -- 83
2020-07-05 00:00:00 20.3 4 Norte 8 Nordeste 0 -- -- 83
2020-07-04 23:00:00 20.8 2 Norte 9 Sudoeste 0 -- -- 82
2020-07-04 22:00:00 22 2 Oeste 7 Oeste 0 -- -- 75
2020-07-04 21:00:00 22.9 4 Sur 13 Sudoeste 0 -- -- 68
2020-07-04 20:00:00 23.4 6 Sur 14 Sur 0 -- -- 63
2020-07-04 19:00:00 25.3 5 Sur 22 Sudoeste 0 -- -- 53
2020-07-04 18:00:00 25.4 8 Sudoeste 24 Sur 0 -- -- 49
2020-07-04 17:00:00 25.7 9 Sur 23 Sur 0 -- -- 47
2020-07-04 16:00:00 25.9 9 Sur 24 Sur 0 -- -- 45
2020-07-04 15:00:00 25.8 9 Sur 22 Sur 0 -- -- 45
2020-07-04 14:00:00 26.5 7 Sur 23 Sur 0 -- -- 43
2020-07-04 13:00:00 25.4 6 Sur 21 Sur 0 -- -- 43
2020-07-04 12:00:00 24.8 8 Sur 19 Sudeste 0 -- -- 44
2020-07-04 11:00:00 25.8 4 Sudeste 10 Sur 0 -- -- 44
2020-07-04 10:00:00 22.7 3 Norte 12 Norte 0 -- -- 60
2020-07-04 09:00:00 20.5 7 Norte 14 Norte 0 -- -- 68
2020-07-04 08:00:00 20 4 Norte 10 Noroeste 0 -- -- 88
2020-07-04 07:00:00 19.2 2 Oeste 8 Norte 0.3 -- -- 89
2020-07-04 06:00:00 19.8 4 Norte 8 Nordeste 0 -- -- 89
2020-07-04 05:00:00 20.1 2 Norte 7 Sudoeste 0.1 -- -- 89
2020-07-04 04:00:00 19.9 2 Norte 11 Sudoeste 1.1 -- -- 89
2020-07-04 03:00:00 20.6 3 Noroeste 8 Norte 0 -- -- 83
2020-07-04 02:00:00 21.1 2 Sur 8 Sur 0 -- -- 77
2020-07-04 01:00:00 21.2 0 Calma 10 Sur 0 -- -- 74
2020-07-04 00:00:00 21.5 3 Sur 8 Sur 0 -- -- 70
2020-07-03 23:00:00 21.7 3 Sur 12 Sur 0 -- -- 68
2020-07-03 22:00:00 21.9 4 Sur 13 Sur 0 -- -- 68
2020-07-03 21:00:00 21.7 5 Sur 12 Sur 0 -- -- 69
2020-07-03 20:00:00 21.8 5 Sur 13 Sudoeste 0 -- -- 68
2020-07-03 19:00:00 21.8 5 Sur 15 Sur 0 -- -- 65
2020-07-03 18:00:00 22 5 Sur 15 Sur 0 -- -- 65
2020-07-03 17:00:00 22.5 9 Sur 17 Sudoeste 0 -- -- 63
2020-07-03 16:00:00 23 5 Sur 19 Sudoeste 0 -- -- 58
2020-07-03 15:00:00 25.7 7 Sur 18 Sur 0 -- -- 50
2020-07-03 14:00:00 24.6 6 Sur 18 Sudoeste 0 -- -- 52
2020-07-03 13:00:00 24 4 Sur 10 Sur 0 -- -- 55
2020-07-03 12:00:00 21.6 0 Calma 5 Sudeste 0 -- -- 67
2020-07-03 11:00:00 20.2 0 Calma 9 Sudeste 0 -- -- 77
2020-07-03 10:00:00 20.9 3 Sur 7 Sudoeste 0 -- -- 89
2020-07-03 09:00:00 19.7 0 Calma 9 Noroeste 0.2 -- -- 90
2020-07-03 08:00:00 19 3 Noroeste 14 Norte 5.3 -- -- 90
2020-07-03 07:00:00 19 3 Sudoeste 17 Noroeste 5.1 -- -- 90
2020-07-03 06:00:00 19.1 7 Norte 16 Sudoeste 4.8 -- -- 90
2020-07-03 05:00:00 19.6 6 Norte 17 Noroeste 0 -- -- 85
2020-07-03 04:00:00 20 6 Noroeste 17 Norte 0.1 -- -- 80
2020-07-03 03:00:00 19.6 3 Noroeste 23 Norte 0.9 -- -- 82
2020-07-03 02:00:00 20.6 10 Norte 19 Sudoeste 0.1 -- -- 73
2020-07-03 01:00:00 20.5 8 Norte 21 Norte 0 -- -- 75
2020-07-03 00:00:00 20.2 6 Norte 47 Sudoeste 0 -- -- 77
2020-07-02 23:00:00 20.1 9 Norte 24 Norte 0 -- -- 85
2020-07-02 22:00:00 20.1 14 Norte 60 Sudoeste 0 -- -- 77
2020-07-02 21:00:00 24.5 6 Norte 21 Nordeste 0 -- -- 51
2020-07-02 20:00:00 25 3 Nordeste 17 Nordeste 0 -- -- 60
2020-07-02 19:00:00 25.8 2 Este 13 Nordeste 0 -- -- 55
2020-07-02 18:00:00 27.8 4 Nordeste 14 Sudeste 0 -- -- 48
2020-07-02 17:00:00 26.9 4 Sur 15 Nordeste 0 -- -- 59
2020-07-02 16:00:00 26.9 7 Sur 24 Sur 0 -- -- 60
2020-07-02 15:00:00 27.7 11 Sudoeste 28 Sudoeste 0 -- -- 55
2020-07-02 14:00:00 27.9 13 Sur 29 Sudoeste 0 -- -- 57
2020-07-02 13:00:00 27.4 13 Sur 24 Sudoeste 0 -- -- 57
2020-07-02 12:00:00 28.2 8 Sudoeste 19 Sur 0 -- -- 58
2020-07-02 11:00:00 28.4 6 Sur 16 Sur 0 -- -- 57
2020-07-02 10:00:00 27.3 5 Sur 14 Sur 0 -- -- 59
2020-07-02 09:00:00 26.3 4 Sur 12 Sudoeste 0 -- -- 61
2020-07-02 08:00:00 23.3 0 Calma 5 Sudoeste 0 -- -- 82
2020-07-02 07:00:00 21.3 0 Calma 8 Norte 0 -- -- 88
2020-07-02 06:00:00 21.1 2 Norte 7 Norte 0 -- -- 87
2020-07-02 05:00:00 21.5 3 Norte 6 Norte 0 -- -- 87
2020-07-02 04:00:00 21.3 0 Calma 12 Norte 0 -- -- 86
2020-07-02 03:00:00 21.5 6 Norte 12 Norte 0 -- -- 87
2020-07-02 02:00:00 22.4 0 Calma 9 Noroeste 0 -- -- 87
2020-07-02 01:00:00 22 0 Calma 5 Norte 0 -- -- 87
2020-07-02 00:00:00 22.8 0 Calma 11 Este 0 -- -- 87
2020-07-01 23:00:00 23.4 0 Calma 8 Nordeste 0 -- -- 86
2020-07-01 22:00:00 24 0 Calma 8 Sudeste 0 -- -- 85
2020-07-01 21:00:00 24.4 0 Calma 9 Nordeste 0 -- -- 80
2020-07-01 20:00:00 25.6 5 Sur 9 Sur 0 -- -- 75
2020-07-01 19:00:00 27.3 6 Sur 14 Nordeste 0 -- -- 60
2020-07-01 18:00:00 28.7 2 Sudeste 12 Nordeste 0 -- -- 49
2020-07-01 17:00:00 28.4 5 Nordeste 13 Nordeste 0 -- -- 52
2020-07-01 16:00:00 29.4 3 Este 13 Norte 0 -- -- 48
2020-07-01 15:00:00 29.4 5 Sur 14 Sudeste 0 -- -- 49
2020-07-01 14:00:00 29.5 4 Sudeste 13 Nordeste 0 -- -- 45
2020-07-01 13:00:00 29.2 4 Sudeste 13 Nordeste 0 -- -- 46
2020-07-01 12:00:00 28.7 4 Sudeste 10 Nordeste 0 -- -- 49
2020-07-01 11:00:00 28.9 3 Sudeste 11 Nordeste 0 -- -- 51
2020-07-01 10:00:00 29.5 0 Calma 9 Nordeste 0 -- -- 44
2020-07-01 09:00:00 27 0 Calma 8 Norte 0 -- -- 47
2020-07-01 08:00:00 21.8 6 Norte 11 Norte 0 -- -- 69
2020-07-01 07:00:00 20.5 6 Norte 14 Norte 0 -- -- 74
2020-07-01 06:00:00 19.6 5 Norte 10 Norte 0 -- -- 87
2020-07-01 05:00:00 19.9 3 Norte 12 Norte 0 -- -- 89
2020-07-01 04:00:00 20.8 0 Calma 10 Sudoeste 0 -- -- 89
2020-07-01 03:00:00 21.1 0 Calma 12 Sudoeste 0 -- -- 88
2020-07-01 02:00:00 22 5 Sudoeste 10 Sudoeste 0 -- -- 87
2020-07-01 01:00:00 22.3 0 Calma 6 Oeste 0 -- -- 89
2020-07-01 00:00:00 21.2 3 Norte 7 Norte 0 -- -- 89
2020-06-30 23:00:00 21.8 0 Calma 8 Sudoeste 0 -- -- 88
2020-06-30 22:00:00 22.8 3 Sudoeste 12 Sur 0 -- -- 84
2020-06-30 21:00:00 23.6 8 Sur 15 Sudoeste 0 -- -- 79
2020-06-30 20:00:00 24.1 8 Sur 16 Sur 0 -- -- 75
2020-06-30 19:00:00 24.6 7 Sur 15 Sudoeste 0 -- -- 72
2020-06-30 18:00:00 25.1 6 Sur 21 Sudoeste 0 -- -- 68
2020-06-30 17:00:00 25.2 9 Sur 22 Sudoeste 0 -- -- 65
2020-06-30 16:00:00 26 9 Sur 20 Sur 0 -- -- 64
2020-06-30 15:00:00 25.2 9 Sur 17 Sudoeste 0 -- -- 72
2020-06-30 14:00:00 24 6 Sur 14 Sudoeste 0 -- -- 74
2020-06-30 13:00:00 24 6 Sur 13 Sudoeste 0 -- -- 72
2020-06-30 12:00:00 24.3 6 Sur 12 Sudoeste 0 -- -- 71
2020-06-30 11:00:00 24 5 Sur 13 Sur 0 -- -- 72
2020-06-30 10:00:00 23.5 5 Sur 12 Sur 0 -- -- 72
2020-06-30 09:00:00 23.9 5 Sur 10 Sur 0 -- -- 73
2020-06-30 08:00:00 23.2 2 Sudoeste 5 Sur 0 -- -- 80
2020-06-30 07:00:00 21.8 3 Oeste 6 Sudoeste 0 -- -- 86
2020-06-30 06:00:00 22.1 0 Calma 3 Nordeste 0 -- -- 85
2020-06-30 05:00:00 22.2 0 Calma 5 Sudoeste 0 -- -- 85
2020-06-30 04:00:00 22.7 0 Calma 7 Sur 0 -- -- 82
2020-06-30 03:00:00 23 3 Sur 9 Sudoeste 0 -- -- 80
2020-06-30 02:00:00 23.1 4 Sur 9 Sur 0 -- -- 79
2020-06-30 01:00:00 23.2 3 Sur 7 Sur 0 -- -- 79
2020-06-30 00:00:00 23.2 3 Sur 10 Sur 0 -- -- 77
2020-06-29 23:00:00 23.3 5 Sur 10 Sur 0 -- -- 76
2020-06-29 22:00:00 23.5 4 Sur 10 Sur 0 -- -- 74
2020-06-29 21:00:00 23.9 5 Sur 13 Sur 0 -- -- 74
2020-06-29 20:00:00 24.6 6 Sur 17 Sur 0 -- -- 71
2020-06-29 19:00:00 25.2 6 Sur 18 Sur 0 -- -- 68
2020-06-29 18:00:00 25.3 7 Sur 18 Sur 0 -- -- 64
2020-06-29 17:00:00 25.9 6 Sur 16 Sur 0 -- -- 61
2020-06-29 16:00:00 26.6 6 Sudeste 18 Sur 0 -- -- 59
2020-06-29 15:00:00 26.5 8 Sur 17 Sudeste 0 -- -- 61
2020-06-29 14:00:00 28.6 4 Sudeste 18 Sur 0 -- -- 53
2020-06-29 13:00:00 28 4 Este 15 Sudeste 0 -- -- 57
2020-06-29 12:00:00 27.5 4 Sudeste 37 Sur 0 -- -- 55
2020-06-29 11:00:00 27.8 4 Sur 12 Nordeste 0 -- -- 57
2020-06-29 10:00:00 26.8 3 Sudeste 10 Sur 0 -- -- 58
2020-06-29 09:00:00 24.4 0 Calma 5 Nordeste 0 -- -- 74
2020-06-29 08:00:00 22.7 2 Norte 6 Norte 0 -- -- 76
2020-06-29 07:00:00 20.5 3 Norte 7 Norte 0 -- -- 83
2020-06-29 06:00:00 20.3 0 Calma 6 Norte 0 -- -- 82
2020-06-29 05:00:00 21.2 5 Norte 12 Norte 0 -- -- 76
2020-06-29 04:00:00 20.1 2 Noroeste 7 Norte 0 -- -- 83
2020-06-29 03:00:00 20.6 3 Noroeste 9 Norte 0 -- -- 82
2020-06-29 02:00:00 20.6 3 Norte 8 Norte 0 -- -- 82
2020-06-29 01:00:00 20.9 3 Norte 6 Nordeste 0 -- -- 85
2020-06-29 00:00:00 21.3 3 Norte 8 Norte 0 -- -- 83
2020-06-28 23:00:00 22.2 0 Calma 7 Norte 0 -- -- 85
2020-06-28 22:00:00 23.2 2 Oeste 12 Sudoeste 0 -- -- 82
2020-06-28 21:00:00 24 6 Sur 16 Sudoeste 0 -- -- 77
2020-06-28 20:00:00 25.1 6 Sudoeste 19 Sudoeste 0 -- -- 68
2020-06-28 19:00:00 26.3 7 Sudoeste 21 Sur 0 -- -- 60
2020-06-28 18:00:00 26.7 9 Sur 22 Sudoeste 0 -- -- 56
2020-06-28 17:00:00 26.8 10 Sur 23 Sur 0 -- -- 58
2020-06-28 16:00:00 27.6 8 Sur 18 Sur 0 -- -- 49
2020-06-28 15:00:00 27.8 8 Sur 22 Sur 0 -- -- 49
2020-06-28 14:00:00 27.5 8 Sur 18 Sur 0 -- -- 52
2020-06-28 13:00:00 28 7 Sur 15 Sur 0 -- -- 47
2020-06-28 12:00:00 28.8 4 Sur 12 Sur 0 -- -- 45
2020-06-28 11:00:00 28.4 3 Sudeste 10 Nordeste 0 -- -- 47
2020-06-28 10:00:00 27.2 2 Este 9 Sur 0 -- -- 51
2020-06-28 09:00:00 25.8 0 Calma 4 Sur 0 -- -- 52
2020-06-28 08:00:00 21.9 2 Norte 9 Norte 0 -- -- 66
2020-06-28 07:00:00 20.3 5 Norte 10 Noroeste 0 -- -- 71
2020-06-28 06:00:00 20.2 4 Norte 12 Norte 0 -- -- 84
2020-06-28 05:00:00 20.4 5 Norte 13 Norte 0 -- -- 87
2020-06-28 04:00:00 20.8 4 Norte 9 Noroeste 0 -- -- 88
2020-06-28 03:00:00 20.8 3 Norte 6 Norte 0 -- -- 88
2020-06-28 02:00:00 21.2 0 Calma 9 Norte 0 -- -- 86
2020-06-28 01:00:00 21.3 3 Norte 7 Norte 0 -- -- 86
2020-06-28 00:00:00 21.8 4 Norte 7 Norte 0 -- -- 83
2020-06-27 23:00:00 21.9 0 Calma 7 Norte 0 -- -- 82
2020-06-27 22:00:00 22.8 0 Calma 5 Sur 0 -- -- 80
2020-06-27 21:00:00 23.2 3 Sur 8 Nordeste 0 -- -- 76
2020-06-27 20:00:00 24 3 Sur 11 Sudoeste 0 -- -- 72
2020-06-27 19:00:00 24.5 5 Sur 13 Sur 0 -- -- 67
2020-06-27 18:00:00 26.3 4 Sur 14 Sudeste 0 -- -- 58
2020-06-27 17:00:00 27.2 5 Sur 17 Sur 0 -- -- 54
2020-06-27 16:00:00 26.1 6 Sur 15 Sur 0 -- -- 57
2020-06-27 15:00:00 27.7 6 Sur 18 Sudeste 0 -- -- 54
2020-06-27 14:00:00 26.3 4 Sudeste 17 Nordeste 0 -- -- 56
2020-06-27 13:00:00 26.8 5 Este 18 Sudeste 0 -- -- 56
2020-06-27 12:00:00 27.2 4 Sur 15 Sur 0 -- -- 53
2020-06-27 11:00:00 26.3 4 Este 14 Nordeste 0 -- -- 59
2020-06-27 10:00:00 26.6 4 Sudeste 12 Sudeste 0 -- -- 58
2020-06-27 09:00:00 23.9 3 Sur 7 Sudeste 0 -- -- 73
2020-06-27 08:00:00 22.4 0 Calma 11 Norte 0 -- -- 81
2020-06-27 07:00:00 20.2 2 Norte 6 Norte 0 -- -- 87
2020-06-27 06:00:00 20.6 4 Norte 8 Norte 0 -- -- 86
2020-06-27 05:00:00 21.3 4 Norte 8 Nordeste 0 -- -- 78
2020-06-27 04:00:00 20.7 3 Norte 7 Norte 0 -- -- 69
2020-06-27 03:00:00 20.4 4 Norte 8 Norte 0 -- -- 59
2020-06-27 02:00:00 20.1 4 Norte 9 Norte 0 -- -- 56
2020-06-27 01:00:00 20.6 3 Norte 8 Norte 0 -- -- 52
2020-06-27 00:00:00 20.9 3 Norte 8 Norte 0 -- -- 49
2020-06-26 23:00:00 21.3 3 Norte 7 Noroeste 0 -- -- 50
2020-06-26 22:00:00 21.8 3 Norte 8 Sudoeste 0 -- -- 51
2020-06-26 21:00:00 23.1 0 Calma 5 Sur 0 -- -- 53
2020-06-26 20:00:00 24.9 3 Sudeste 8 Sur 0 -- -- 54
2020-06-26 19:00:00 27 3 Sur 12 Sur 0 -- -- 53
2020-06-26 18:00:00 27.8 4 Sudeste 12 Nordeste 0 -- -- 50
2020-06-26 17:00:00 28.2 4 Este 12 Sudoeste 0 -- -- 46
2020-06-26 16:00:00 28.7 3 Sudeste 15 Nordeste 0 -- -- 38
2020-06-26 15:00:00 29.3 4 Este 14 Nordeste 0 -- -- 38
2020-06-26 14:00:00 28.5 4 Este 13 Nordeste 0 -- -- 45
2020-06-26 13:00:00 28.5 7 Sur 15 Sur 0 -- -- 50
2020-06-26 12:00:00 28.2 4 Este 13 Nordeste 0 -- -- 47
2020-06-26 11:00:00 27.4 3 Este 12 Nordeste 0 -- -- 44
2020-06-26 10:00:00 27.3 3 Sur 8 Sudeste 0 -- -- 45
2020-06-26 09:00:00 26.5 0 Calma 6 Norte 0 -- -- 45
2020-06-26 08:00:00 21.4 3 Nordeste 8 Norte 0 -- -- 58
2020-06-26 07:00:00 20.7 4 Norte 13 Norte 0 -- -- 54
2020-06-26 06:00:00 20 6 Norte 11 Norte 0 -- -- 56
2020-06-26 05:00:00 20 4 Norte 9 Noroeste 0 -- -- 65
2020-06-26 04:00:00 20.2 4 Norte 8 Norte 0 -- -- 67
2020-06-26 03:00:00 20.1 5 Norte 8 Norte 0 -- -- 64
2020-06-26 02:00:00 20.5 3 Norte 7 Norte 0 -- -- 59
2020-06-26 01:00:00 20.5 2 Norte 7 Norte 0 -- -- 56
2020-06-26 00:00:00 20.8 3 Nordeste 7 Nordeste 0 -- -- 55
2020-06-25 23:00:00 21.2 3 Oeste 8 Sudoeste 0 -- -- 54
2020-06-25 22:00:00 22.1 0 Calma 6 Oeste 0 -- -- 59
2020-06-25 21:00:00 23.9 4 Sudoeste 15 Sudoeste 0 -- -- 60
2020-06-25 20:00:00 25.1 6 Sur 11 Sur 0 -- -- 51
2020-06-25 19:00:00 28.4 3 Sudeste 10 Este 0 -- -- 37
2020-06-25 18:00:00 29.3 2 Sudeste 11 Nordeste 0 -- -- 33
2020-06-25 17:00:00 27.8 4 Este 14 Nordeste 0 -- -- 40
2020-06-25 16:00:00 28.7 4 Este 14 Nordeste 0 -- -- 42
2020-06-25 15:00:00 27.5 3 Sudeste 14 Nordeste 0 -- -- 44
2020-06-25 14:00:00 26.8 6 Sur 15 Sudoeste 0 -- -- 54
2020-06-25 13:00:00 27.2 4 Sudeste 15 Sudeste 0 -- -- 59
2020-06-25 12:00:00 26.8 4 Sudeste 17 Nordeste 0 -- -- 58
2020-06-25 11:00:00 25.4 4 Sudeste 12 Sudeste 0 -- -- 64
2020-06-25 10:00:00 26.1 3 Sur 9 Sur 0 -- -- 58
2020-06-25 09:00:00 24.9 0 Calma 5 Sur 0 -- -- 54
2020-06-25 08:00:00 20.8 0 Calma 6 Norte 0 -- -- 70
2020-06-25 07:00:00 19.1 3 Norte 6 Norte 0 -- -- 79
2020-06-25 06:00:00 19.6 0 Calma 5 Oeste 0 -- -- 81
2020-06-25 05:00:00 19.5 0 Calma 9 Norte 0 -- -- 81
2020-06-25 04:00:00 19.2 3 Norte 6 Sudoeste 0 -- -- 86
2020-06-25 03:00:00 19.9 2 Norte 7 Noroeste 0 -- -- 87
2020-06-25 02:00:00 20 3 Noroeste 7 Noroeste 0 -- -- 86
2020-06-25 01:00:00 19.8 3 Norte 8 Norte 0 -- -- 85
2020-06-25 00:00:00 19.9 3 Norte 8 Norte 0 -- -- 83
2020-06-24 23:00:00 21 0 Calma 6 Oeste 0 -- -- 78
2020-06-24 22:00:00 21.9 2 Oeste 8 Sudoeste 0 -- -- 76
2020-06-24 21:00:00 22.8 0 Calma 12 Sur 0 -- -- 69
2020-06-24 20:00:00 24 6 Sur 14 Sur 0 -- -- 66
2020-06-24 19:00:00 26.4 6 Sur 16 Sur 0 -- -- 55
2020-06-24 18:00:00 26.6 7 Sur 18 Sudoeste 0 -- -- 58
2020-06-24 17:00:00 25.6 6 Sur 19 Sur 0 -- -- 56
2020-06-24 16:00:00 26.6 6 Sur 20 Sur 0 -- -- 53
2020-06-24 15:00:00 27.5 9 Sudoeste 22 Sudoeste 0 -- -- 42
2020-06-24 14:00:00 26.8 8 Sudoeste 20 Sur 0 -- -- 49
2020-06-24 13:00:00 26.6 7 Sur 21 Sur 0 -- -- 51
2020-06-24 12:00:00 26.1 10 Sudoeste 22 Sudoeste 0 -- -- 51
2020-06-24 11:00:00 26.3 11 Sur 21 Sur 0 -- -- 45
2020-06-24 10:00:00 26.1 6 Sudoeste 17 Sudoeste 0 -- -- 51
2020-06-24 09:00:00 -- -- -- -- -- -- -- -- --
2020-06-24 08:00:00 20.3 0 Calma 6 Norte 0 -- -- 80
2020-06-24 07:00:00 18.2 2 Norte 5 Norte 0 -- -- 85
2020-06-24 06:00:00 17.5 3 Norte 5 Norte 0 -- -- 85
2020-06-24 05:00:00 17.6 2 Norte 6 Norte 0 -- -- 82
2020-06-24 04:00:00 17.8 4 Norte 7 Norte 0 -- -- 81
2020-06-24 03:00:00 18.8 0 Calma 7 Norte 0 -- -- 85
2020-06-24 02:00:00 18.7 2 Norte 7 Norte 0 -- -- 82
2020-06-24 01:00:00 18.9 4 Norte 7 Norte 0 -- -- 84
2020-06-24 00:00:00 19.7 0 Calma 5 Norte 0 -- -- 86
2020-06-23 23:00:00 20.4 0 Calma 6 Sudoeste 0 -- -- 86
2020-06-23 22:00:00 21.5 3 Sudoeste 9 Sudoeste 0 -- -- 85
2020-06-23 21:00:00 22.3 6 Sudoeste 15 Sudoeste 0 -- -- 78
2020-06-23 20:00:00 23.5 6 Sudoeste 20 Sur 0 -- -- 72
2020-06-23 19:00:00 25 9 Sudoeste 24 Sudoeste 0 -- -- 63
2020-06-23 18:00:00 25.8 10 Sur 27 Sur 0 -- -- 62
2020-06-23 17:00:00 25.8 12 Sudoeste 29 Sudoeste 0 -- -- 59
2020-06-23 16:00:00 25.9 11 Sur 31 Sur 0 -- -- 60
2020-06-23 15:00:00 25.8 12 Sur 30 Sudoeste 0 -- -- 58
2020-06-23 14:00:00 27 11 Sur 23 Sudoeste 0 -- -- 52
2020-06-23 13:00:00 26.8 9 Sur 20 Sur 0 -- -- 52
2020-06-23 12:00:00 26.9 7 Sur 16 Sudoeste 0 -- -- 50
2020-06-23 11:00:00 26.2 4 Este 12 Sudeste 0 -- -- 49
2020-06-23 10:00:00 26.5 4 Sur 9 Sudeste 0 -- -- 48
2020-06-23 09:00:00 24.9 0 Calma 3 Sur 0 -- -- 49
2020-06-23 08:00:00 21.9 0 Calma 5 Norte 0 -- -- 63
2020-06-23 07:00:00 19.4 2 Norte 8 Norte 0 -- -- 68
2020-06-23 06:00:00 19.2 5 Norte 9 Norte 0 -- -- 65
2020-06-23 05:00:00 20.5 4 Norte 10 Norte 0 -- -- 59
2020-06-23 04:00:00 19.4 4 Norte 8 Sudoeste 0 -- -- 73
2020-06-23 03:00:00 20 0 Calma 6 Norte 0 -- -- 82
2020-06-23 02:00:00 19.9 0 Calma 8 Norte 0 -- -- 83
2020-06-23 01:00:00 20.3 0 Calma 6 Noroeste 0 -- -- 87
2020-06-23 00:00:00 20.2 0 Calma 5 Noroeste 0 -- -- 86
2020-06-22 23:00:00 21.1 0 Calma 6 Sudoeste 0 -- -- 83
2020-06-22 22:00:00 21.9 3 Sudoeste 7 Sudoeste 0 -- -- 80
2020-06-22 21:00:00 21.9 3 Sur 9 Sur 0 -- -- 80
2020-06-22 20:00:00 22.4 5 Sur 12 Sur 0 -- -- 75
2020-06-22 19:00:00 23.1 7 Sur 14 Sur 0 -- -- 72
2020-06-22 18:00:00 23.7 8 Sur 17 Sur 0 -- -- 68
2020-06-22 17:00:00 24.1 7 Sur 15 Sur 0 -- -- 68
2020-06-22 16:00:00 25.8 6 Sur 18 Sudoeste 0 -- -- 59
2020-06-22 15:00:00 26 7 Sur 17 Sur 0 -- -- 57
2020-06-22 14:00:00 26.3 6 Sur 15 Nordeste 0 -- -- 62
2020-06-22 13:00:00 26.2 6 Sur 14 Sur 0 -- -- 57
2020-06-22 12:00:00 26.6 4 Sudeste 13 Sudeste 0 -- -- 50
2020-06-22 11:00:00 27.3 3 Sudeste 13 Nordeste 0 -- -- 50
2020-06-22 10:00:00 25.5 4 Nordeste 11 Nordeste 0 -- -- 53
2020-06-22 09:00:00 24.5 0 Calma 5 Nordeste 0 -- -- 56
2020-06-22 08:00:00 20.8 2 Norte 6 Nordeste 0 -- -- 75
2020-06-22 07:00:00 19.2 0 Calma 9 Norte 0 -- -- 80
2020-06-22 06:00:00 18.7 3 Norte 5 Norte 0 -- -- 82
2020-06-22 05:00:00 19.5 3 Norte 8 Norte 0 -- -- 79
2020-06-22 04:00:00 19.6 0 Calma 10 Norte 0 -- -- 76
2020-06-22 03:00:00 19.7 4 Nordeste 10 Norte 0 -- -- 74
2020-06-22 02:00:00 19.7 4 Nordeste 10 Norte 0 -- -- 73
2020-06-22 01:00:00 19.7 3 Norte 8 Norte 0 -- -- 84
2020-06-22 00:00:00 19.8 0 Calma 5 Noroeste 0 -- -- 86
2020-06-21 23:00:00 20.7 0 Calma 5 Sudoeste 0 -- -- 85
2020-06-21 22:00:00 21.5 0 Calma 7 Sudoeste 0 -- -- 82
2020-06-21 21:00:00 22.1 3 Sur 8 Sur 0 -- -- 79
2020-06-21 20:00:00 23 4 Sur 12 Sudoeste 0 -- -- 73
2020-06-21 19:00:00 24.4 6 Sudoeste 18 Sur 0 -- -- 64
2020-06-21 18:00:00 24.9 9 Sur 19 Sudoeste 0 -- -- 61
2020-06-21 17:00:00 25.2 11 Sur 22 Sur 0 -- -- 63
2020-06-21 16:00:00 24.8 9 Sur 20 Sur 0 -- -- 60
2020-06-21 15:00:00 26 8 Sudoeste 18 Sudoeste 0 -- -- 56
2020-06-21 14:00:00 25.6 7 Sur 16 Sur 0 -- -- 51
2020-06-21 13:00:00 25.7 6 Sur 16 Sudoeste 0 -- -- 48
2020-06-21 12:00:00 26.5 3 Este 13 Sudeste 0 -- -- 47
2020-06-21 11:00:00 26 2 Este 9 Nordeste 0 -- -- 42
2020-06-21 10:00:00 25.8 0 Calma 7 Sudeste 0 -- -- 46
2020-06-21 09:00:00 25.3 2 Norte 7 Norte 0 -- -- 50
2020-06-21 08:00:00 19.5 0 Calma 11 Norte 0 -- -- 79
2020-06-21 07:00:00 17.9 7 Norte 13 Norte 0 -- -- 82
2020-06-21 06:00:00 17.6 7 Norte 15 Norte 0 -- -- 83
2020-06-21 05:00:00 17.8 6 Norte 14 Norte 0 -- -- 86
2020-06-21 04:00:00 18 5 Norte 13 Norte 0 -- -- 88
2020-06-21 03:00:00 18.2 4 Norte 8 Norte 0 -- -- 89
2020-06-21 02:00:00 18.7 3 Noroeste 8 Norte 0 -- -- 89
2020-06-21 01:00:00 18.8 2 Norte 8 Norte 0 -- -- 89
2020-06-21 00:00:00 19.3 2 Norte 6 Norte 0 -- -- 89
2020-06-20 23:00:00 20.2 2 Norte 5 Noroeste 0 -- -- 89
2020-06-20 22:00:00 20.7 2 Sur 7 Sur 0 -- -- 87
2020-06-20 21:00:00 21.8 0 Calma 10 Sudoeste 0 -- -- 83
2020-06-20 20:00:00 21.4 0 Calma 15 Sudoeste 0 -- -- 86
2020-06-20 19:00:00 22.4 3 Sur 20 Sur 0 -- -- 74
2020-06-20 18:00:00 22.8 13 Sur 29 Sudoeste 0 -- -- 71
2020-06-20 17:00:00 23.2 11 Sur 29 Sudoeste 0 -- -- 72
2020-06-20 16:00:00 24.4 12 Sudoeste 26 Sudoeste 0 -- -- 61
2020-06-20 15:00:00 25.6 9 Sur 20 Sur 0 -- -- 54
2020-06-20 14:00:00 24.9 8 Sur 21 Sudoeste 0 -- -- 54
2020-06-20 13:00:00 24.7 7 Sur 18 Sudoeste 0 -- -- 51
2020-06-20 12:00:00 25.8 5 Sur 15 Sur 0 -- -- 50
2020-06-20 11:00:00 24.8 4 Este 12 Sudeste 0 -- -- 53
2020-06-20 10:00:00 23.6 3 Sudeste 10 Nordeste 0 -- -- 55
2020-06-20 09:00:00 22.1 0 Calma 9 Nordeste 0 -- -- 61
2020-06-20 08:00:00 18.7 0 Calma 11 Norte 0 -- -- 79
2020-06-20 07:00:00 17.1 5 Norte 9 Norte 0 -- -- 87
2020-06-20 06:00:00 16.9 2 Noroeste 10 Norte 0 -- -- 86
2020-06-20 05:00:00 17.3 3 Norte 11 Norte 0 -- -- 84
2020-06-20 04:00:00 17.2 0 Calma 7 Norte 0 -- -- 84
2020-06-20 03:00:00 17.5 2 Noroeste 5 Noroeste 0 -- -- 84
2020-06-20 02:00:00 17.6 0 Calma 6 Norte 0 -- -- 83
2020-06-20 01:00:00 18 0 Calma 6 Oeste 0 -- -- 82
2020-06-20 00:00:00 18.5 2 Oeste 8 Sudoeste 0 -- -- 79
2020-06-19 23:00:00 18.2 2 Noroeste 8 Sudoeste 0 -- -- 77
2020-06-19 22:00:00 18.6 3 Oeste 6 Oeste 0 -- -- 76
2020-06-19 21:00:00 19.6 0 Calma 12 Sur 0 -- -- 68
2020-06-19 20:00:00 20.7 5 Sudoeste 23 Sudoeste 0 -- -- 58
2020-06-19 19:00:00 22.2 10 Sudoeste 21 Sur 0 -- -- 50
2020-06-19 18:00:00 23.1 7 Sur 20 Sudoeste 0 -- -- 46
2020-06-19 17:00:00 24.3 8 Sur 19 Sur 0 -- -- 45
2020-06-19 16:00:00 23.2 8 Sur 18 Sur 0 -- -- 46
2020-06-19 15:00:00 23.4 8 Sur 19 Nordeste 0 -- -- 45
2020-06-19 14:00:00 23.9 5 Sur 13 Sudoeste 0 -- -- 43
2020-06-19 13:00:00 21 4 Sur 12 Sudoeste 0 -- -- 50
2020-06-19 12:00:00 21.3 5 Sur 13 Sur 0 -- -- 50
2020-06-19 11:00:00 23.8 3 Sudeste 11 Sudeste 0 -- -- 39
2020-06-19 10:00:00 22.7 4 Sur 9 Sur 0 -- -- 40
2020-06-19 09:00:00 22 0 Calma 8 Nordeste 0 -- -- 44
2020-06-19 08:00:00 18 4 Norte 10 Norte 0 -- -- 66
2020-06-19 07:00:00 15.6 7 Norte 12 Norte 0 -- -- 70
2020-06-19 06:00:00 15.2 3 Norte 9 Norte 0 -- -- 72
2020-06-19 05:00:00 15.3 5 Norte 8 Norte 0 -- -- 70
2020-06-19 04:00:00 15.5 2 Norte 8 Norte 0 -- -- 70
2020-06-19 03:00:00 15.6 5 Norte 9 Norte 0 -- -- 73
2020-06-19 02:00:00 16.1 4 Norte 8 Sudoeste 0 -- -- 70
2020-06-19 01:00:00 16.7 3 Norte 10 Noroeste 0 -- -- 76
2020-06-19 00:00:00 16 5 Norte 12 Norte 0 -- -- 85
2020-06-18 23:00:00 16.1 0 Calma 5 Norte 0 -- -- 84
2020-06-18 22:00:00 17.4 2 Norte 8 Norte 0 -- -- 77
2020-06-18 21:00:00 18.1 2 Nordeste 13 Sudeste 0 -- -- 73
2020-06-18 20:00:00 18.5 3 Este 14 Sudeste 0 -- -- 67
2020-06-18 19:00:00 19.4 3 Este 13 Sudeste 0 -- -- 62
2020-06-18 18:00:00 20.8 3 Sudeste 14 Nordeste 0 -- -- 57
2020-06-18 17:00:00 21.2 3 Sudeste 17 Nordeste 0 -- -- 58
2020-06-18 16:00:00 21 4 Sudeste 16 Nordeste 0 -- -- 55
2020-06-18 15:00:00 20.9 5 Sur 16 Nordeste 0 -- -- 58
2020-06-18 14:00:00 21.2 5 Sudeste 17 Sudeste 0 -- -- 58
2020-06-18 13:00:00 21 4 Sudeste 15 Nordeste 0 -- -- 55
2020-06-18 12:00:00 19.9 4 Este 14 Sudeste 0 -- -- 61
2020-06-18 11:00:00 16.6 0 Calma 20 Noroeste 2.1 -- -- 88
2020-06-18 10:00:00 14.7 8 Norte 17 Norte 4.6 -- -- 90
2020-06-18 09:00:00 14.8 7 Norte 13 Norte 4.5 -- -- 90
2020-06-18 08:00:00 16.3 0 Calma 12 Norte 0.3 -- -- 78
2020-06-18 07:00:00 16.1 6 Norte 13 Nordeste 0 -- -- 70
2020-06-18 06:00:00 15.5 6 Norte 12 Nordeste 0 -- -- 70
2020-06-18 05:00:00 15.9 6 Norte 13 Norte 0 -- -- 69
2020-06-18 04:00:00 16 4 Norte 9 Norte 0 -- -- 71
2020-06-18 03:00:00 16 3 Norte 6 Noroeste 0 -- -- 76
2020-06-18 02:00:00 17.1 2 Norte 9 Norte 0 -- -- 74
2020-06-18 01:00:00 17.5 7 Norte 11 Norte 0 -- -- 74
2020-06-18 00:00:00 17.1 5 Norte 12 Norte 0 -- -- 76
2020-06-17 23:00:00 17.6 5 Norte 16 Norte 0 -- -- 75
2020-06-17 22:00:00 18.2 3 Norte 6 Norte 0 -- -- 80
2020-06-17 21:00:00 19.4 0 Calma 7 Este 0 -- -- 74
2020-06-17 20:00:00 20.3 0 Calma 8 Sur 0 -- -- 68
2020-06-17 19:00:00 22.2 4 Sur 13 Sur 0 -- -- 63
2020-06-17 18:00:00 22.7 5 Sur 14 Sudeste 0 -- -- 59
2020-06-17 17:00:00 22.7 5 Sudeste 17 Sudeste 0 -- -- 59
2020-06-17 16:00:00 21 7 Sudeste 26 Sudeste 0 -- -- 64
2020-06-17 15:00:00 19.6 4 Este 17 Sudeste 0 -- -- 62
2020-06-17 14:00:00 21.9 6 Sudeste 15 Sudeste 0 -- -- 54
2020-06-17 13:00:00 21.7 3 Sudeste 14 Sur 0 -- -- 51
2020-06-17 12:00:00 19.8 3 Sur 14 Sudeste 0 -- -- 55
2020-06-17 11:00:00 20.3 3 Sudeste 17 Norte 0 -- -- 54
2020-06-17 10:00:00 20.7 3 Sudeste 12 Sudeste 0 -- -- 59
2020-06-17 09:00:00 19.9 2 Este 10 Este 0 -- -- 66
2020-06-17 08:00:00 18.4 3 Noroeste 9 Norte 0 -- -- 76
2020-06-17 07:00:00 17.2 0 Calma 9 Norte 0 -- -- 85
2020-06-17 06:00:00 15.8 2 Noroeste 12 Noroeste 0 -- -- 88
2020-06-17 05:00:00 15.8 0 Calma 7 Norte 0 -- -- 89
2020-06-17 04:00:00 16.1 3 Noroeste 8 Norte 0 -- -- 89
2020-06-17 03:00:00 16.3 3 Noroeste 7 Norte 0 -- -- 89
2020-06-17 02:00:00 16.6 4 Norte 10 Norte 0 -- -- 89
2020-06-17 01:00:00 16.2 5 Norte 10 Norte 0 -- -- 89
2020-06-17 00:00:00 16.5 4 Norte 14 Norte 0 -- -- 88
2020-06-16 23:00:00 16.9 0 Calma 7 Norte 0 -- -- 88
2020-06-16 22:00:00 17.7 0 Calma 7 Noroeste 0 -- -- 86
2020-06-16 21:00:00 18.7 4 Sudoeste 14 Sudoeste 0 -- -- 79
2020-06-16 20:00:00 19.8 8 Sudoeste 14 Sur 0 -- -- 69
2020-06-16 19:00:00 21.8 6 Sudoeste 19 Sudoeste 0 -- -- 61
2020-06-16 18:00:00 21.3 7 Sur 14 Sudoeste 0 -- -- 68
2020-06-16 17:00:00 19 6 Sudoeste 14 Noroeste 1 -- -- 84
2020-06-16 16:00:00 17.7 4 Oeste 21 Oeste 0.7 -- -- 80
2020-06-16 15:00:00 20.1 8 Oeste 23 Sudoeste 0 -- -- 56
2020-06-16 14:00:00 21 5 Oeste 13 Noroeste 0 -- -- 54
2020-06-16 13:00:00 19.6 3 Oeste 12 Sur 0 -- -- 66
2020-06-16 12:00:00 19.7 2 Sudeste 9 Sudeste 0 -- -- 68
2020-06-16 11:00:00 19.6 3 Sur 9 Sur 0 -- -- 72
2020-06-16 10:00:00 19 0 Calma 9 Sudoeste 0 -- -- 77
2020-06-16 09:00:00 18.3 0 Calma 9 Norte 0 -- -- 84
2020-06-16 08:00:00 17.2 5 Norte 13 Norte 0.1 -- -- 88
2020-06-16 07:00:00 17.2 0 Calma 7 Noroeste 0.3 -- -- 88
2020-06-16 06:00:00 17.2 0 Calma 10 Norte 0 -- -- 82
2020-06-16 05:00:00 17.1 4 Noroeste 11 Norte 0 -- -- 82
2020-06-16 04:00:00 17.4 3 Noroeste 13 Noroeste 0.1 -- -- 83
2020-06-16 03:00:00 17.6 5 Norte 13 Norte 0 -- -- 73
2020-06-16 02:00:00 17.4 8 Norte 18 Nordeste 0 -- -- 75
2020-06-16 01:00:00 16.9 5 Norte 10 Nordeste 0 -- -- 83
2020-06-16 00:00:00 17.4 4 Norte 8 Norte 0 -- -- 85
2020-06-15 23:00:00 18 2 Noroeste 5 Norte 0 -- -- 83
2020-06-15 22:00:00 18.9 0 Calma 4 Noroeste 0 -- -- 79
2020-06-15 21:00:00 20.2 0 Calma 6 Nordeste 0 -- -- 70
2020-06-15 20:00:00 21.2 3 Sur 8 Sudeste 0 -- -- 65
2020-06-15 19:00:00 21.2 4 Sur 14 Sur 0 -- -- 61
2020-06-15 18:00:00 22.3 8 Sur 21 Sudoeste 0 -- -- 53
2020-06-15 17:00:00 22.4 10 Sur 26 Sur 0 -- -- 51
2020-06-15 16:00:00 22.6 14 Sur 31 Sur 0 -- -- 53
2020-06-15 15:00:00 23.5 11 Sudoeste 32 Sudoeste 0 -- -- 50
2020-06-15 14:00:00 23.5 14 Sur 30 Sudoeste 0 -- -- 50
2020-06-15 13:00:00 24.8 12 Sudoeste 29 Sur 0 -- -- 48
2020-06-15 12:00:00 24 12 Sur 26 Sur 0 -- -- 48
2020-06-15 11:00:00 23.2 5 Sur 13 Sur 0 -- -- 40
2020-06-15 10:00:00 22.5 2 Sudeste 9 Sudeste 0 -- -- 41
2020-06-15 09:00:00 22.3 2 Sur 5 Sur 0 -- -- 46
2020-06-15 08:00:00 18.3 0 Calma 6 Norte 0 -- -- 70
2020-06-15 07:00:00 16.7 4 Norte 8 Norte 0 -- -- 70
2020-06-15 06:00:00 16.4 5 Norte 13 Norte 0 -- -- 69
2020-06-15 05:00:00 16.3 5 Norte 10 Noroeste 0 -- -- 70
2020-06-15 04:00:00 16.6 4 Norte 8 Norte 0 -- -- 70
2020-06-15 03:00:00 16.7 5 Norte 9 Norte 0 -- -- 72
2020-06-15 02:00:00 17 5 Norte 9 Norte 0 -- -- 80
2020-06-15 01:00:00 16.8 4 Norte 8 Norte 0 -- -- 85
2020-06-15 00:00:00 17.4 3 Norte 8 Norte 0 -- -- 87
2020-06-14 23:00:00 18.2 3 Noroeste 11 Norte 0 -- -- 86
2020-06-14 22:00:00 19.6 0 Calma 8 Noroeste 0 -- -- 83
2020-06-14 21:00:00 20.5 2 Oeste 20 Sur 0 -- -- 82
2020-06-14 20:00:00 21.1 8 Sur 22 Sur 0 -- -- 73
2020-06-14 19:00:00 21.7 11 Sudoeste 26 Sudoeste 0 -- -- 70
2020-06-14 18:00:00 22.6 13 Sur 28 Sur 0 -- -- 67
2020-06-14 17:00:00 21.5 9 Sudoeste 28 Sudoeste 0 -- -- 69
2020-06-14 16:00:00 22.1 10 Sur 25 Sudoeste 0 -- -- 66
2020-06-14 15:00:00 21.3 6 Sur 21 Sur 0 -- -- 63
2020-06-14 14:00:00 23 8 Sur 22 Sudoeste 0 -- -- 54
2020-06-14 13:00:00 23.4 8 Sur 17 Sur 0 -- -- 51
2020-06-14 12:00:00 24 5 Sur 15 Sur 0 -- -- 46
2020-06-14 11:00:00 22.2 7 Sur 17 Sur 0 -- -- 44
2020-06-14 10:00:00 22.8 8 Sur 13 Sudoeste 0 -- -- 39
2020-06-14 09:00:00 23 0 Calma 8 Norte 0 -- -- 40
2020-06-14 08:00:00 17.6 3 Norte 9 Norte 0 -- -- 66
2020-06-14 07:00:00 15.6 5 Norte 10 Nordeste 0 -- -- 69
2020-06-14 06:00:00 15.2 5 Norte 12 Norte 0 -- -- 73
2020-06-14 05:00:00 15.6 6 Norte 12 Norte 0 -- -- 68
2020-06-14 04:00:00 15.6 5 Noroeste 11 Norte 0 -- -- 66
2020-06-14 03:00:00 15.9 7 Norte 10 Norte 0 -- -- 64
2020-06-14 02:00:00 15.9 4 Norte 10 Norte 0 -- -- 64
2020-06-14 01:00:00 17 5 Norte 12 Nordeste 0 -- -- 63
2020-06-14 00:00:00 18.9 8 Norte 16 Norte 0 -- -- 52
2020-06-13 23:00:00 18.5 9 Norte 18 Norte 0 -- -- 57
2020-06-13 22:00:00 19.5 7 Norte 14 Norte 0 -- -- 57
2020-06-13 21:00:00 19.9 4 Norte 10 Nordeste 0 -- -- 57
2020-06-13 20:00:00 20.7 3 Sudeste 21 Nordeste 0 -- -- 56
2020-06-13 19:00:00 23.8 4 Sudeste 21 Nordeste 0 -- -- 44
2020-06-13 18:00:00 24.9 8 Norte 22 Nordeste 0 -- -- 35
2020-06-13 17:00:00 26.5 12 Sudoeste 29 Sur 0 -- -- 36
2020-06-13 16:00:00 25.4 12 Sur 32 Sur 0 -- -- 41
2020-06-13 15:00:00 23 17 Sur 33 Sudoeste 0 -- -- 44
2020-06-13 14:00:00 23.6 12 Sudoeste 36 Sudoeste 0 -- -- 40
2020-06-13 13:00:00 23.5 8 Sur 21 Sur 0 -- -- 42
2020-06-13 12:00:00 22.8 5 Sudeste 13 Sur 0 -- -- 47
2020-06-13 11:00:00 22.5 5 Sur 15 Sudoeste 0 -- -- 47
2020-06-13 10:00:00 18.9 4 Sur 13 Sudoeste 0 -- -- 77
2020-06-13 09:00:00 17 7 Norte 21 Noroeste 0 -- -- 85
2020-06-13 08:00:00 14.5 2 Norte 25 Noroeste 6 -- -- 88
2020-06-13 07:00:00 15.5 7 Sudoeste 17 Sudoeste 13.5 -- -- 89
2020-06-13 06:00:00 17 6 Norte 12 Nordeste 0 -- -- 68
2020-06-13 05:00:00 15.9 5 Norte 8 Norte 0 -- -- 68
2020-06-13 04:00:00 16.4 3 Norte 11 Norte 0 -- -- 64
2020-06-13 03:00:00 15.9 5 Norte 12 Norte 0 -- -- 65
2020-06-13 02:00:00 15.7 5 Norte 10 Norte 0 -- -- 67
2020-06-13 01:00:00 16.7 2 Norte 9 Sudoeste 0 -- -- 64
2020-06-13 00:00:00 17.2 0 Calma 7 Oeste 0 -- -- 72
2020-06-12 23:00:00 18.8 3 Oeste 19 Sudoeste 0 -- -- 66
2020-06-12 22:00:00 19.9 7 Sudoeste 20 Oeste 0 -- -- 62
2020-06-12 21:00:00 20.5 9 Sudoeste 22 Sur 0 -- -- 54
2020-06-12 20:00:00 21.3 8 Sur 26 Sur 0 -- -- 50
2020-06-12 19:00:00 22.3 10 Sudoeste 31 Sudoeste 0 -- -- 43
2020-06-12 18:00:00 23.1 13 Sur 32 Sur 0 -- -- 45
2020-06-12 17:00:00 23.1 16 Sur 35 Sudoeste 0 -- -- 46
2020-06-12 16:00:00 23 15 Sur 32 Sur 0 -- -- 47
2020-06-12 15:00:00 23.5 15 Sur 35 Sudoeste 0 -- -- 43
2020-06-12 14:00:00 24 17 Sur 35 Sur 0 -- -- 41
2020-06-12 13:00:00 24.7 15 Sur 33 Sur 0 -- -- 36
2020-06-12 12:00:00 26.4 6 Sudoeste 25 Oeste 0 -- -- 30
2020-06-12 11:00:00 26 6 Oeste 23 Sudoeste 0 -- -- 33
2020-06-12 10:00:00 24.2 9 Sudoeste 18 Sudoeste 0 -- -- 43
2020-06-12 09:00:00 23.6 5 Sudoeste 12 Sudoeste 0 -- -- 57
2020-06-12 08:00:00 21.3 0 Calma 8 Oeste 0 -- -- 75
2020-06-12 07:00:00 19.9 2 Oeste 9 Oeste 0 -- -- 83
2020-06-12 06:00:00 18.8 0 Calma 6 Norte 0 -- -- 87
2020-06-12 05:00:00 18.9 0 Calma 5 Norte 0 -- -- 87
2020-06-12 04:00:00 18.9 2 Norte 8 Norte 0 -- -- 87
2020-06-12 03:00:00 19.1 3 Norte 7 Norte 0 -- -- 87
2020-06-12 02:00:00 19.1 0 Calma 5 Norte 0 -- -- 88
2020-06-12 01:00:00 18.8 3 Norte 11 Norte 0 -- -- 88
2020-06-12 00:00:00 19.2 0 Calma -- -- 0 -- -- 88